createdAt,value
2023-03-11T00:02:27.403Z,2.57
2023-03-11T00:04:59.470Z,1.83
2023-03-11T00:07:31.256Z,2.40
2023-03-11T00:10:02.477Z,1.40
2023-03-11T00:15:16.457Z,1.13
2023-03-11T00:17:45.990Z,1.43
2023-03-11T00:20:24.176Z,1.57
2023-03-11T00:22:52.442Z,1.10
2023-03-11T00:25:21.644Z,1.23
2023-03-11T00:27:52.733Z,2.47
2023-03-11T00:30:29.516Z,1.50
2023-03-11T00:32:59.637Z,1.90
2023-03-11T00:35:40.838Z,1.53
2023-03-11T00:38:15.692Z,0.70
2023-03-11T00:40:47.312Z,1.53
2023-03-11T00:43:16.300Z,1.80
2023-03-11T00:45:44.900Z,1.13
2023-03-11T00:48:17.507Z,1.90
2023-03-11T00:50:51.591Z,2.47
2023-03-11T00:53:26.615Z,2.10
2023-03-11T00:55:58.935Z,1.70
2023-03-11T00:58:32.052Z,1.97
2023-03-11T01:01:00.450Z,1.30
2023-03-11T01:03:30.955Z,2.03
2023-03-11T01:06:01.204Z,2.83
2023-03-11T01:08:34.226Z,1.33
2023-03-11T01:11:07.325Z,1.80
2023-03-11T01:13:37.330Z,1.67
2023-03-11T01:16:06.075Z,1.60
2023-03-11T01:18:35.198Z,1.20
2023-03-11T01:21:09.826Z,3.17
2023-03-11T01:26:30.635Z,2.70
2023-03-11T01:29:03.123Z,3.13
2023-03-11T01:31:34.032Z,2.20
2023-03-11T01:34:04.144Z,2.90
2023-03-11T01:36:35.501Z,1.30
2023-03-11T01:39:06.233Z,2.30
2023-03-11T01:41:35.358Z,1.87
2023-03-11T01:44:07.997Z,0.70
2023-03-11T01:47:09.050Z,3.43
2023-03-11T01:49:43.089Z,1.27
2023-03-11T01:52:15.811Z,1.60
2023-03-11T01:54:42.904Z,2.23
2023-03-11T01:57:17.476Z,1.30
2023-03-11T01:59:52.231Z,2.30
2023-03-11T02:02:47.828Z,1.10
2023-03-11T02:05:29.484Z,1.97
2023-03-11T02:07:58.639Z,3.80
2023-03-11T02:10:30.992Z,1.20
2023-03-11T02:13:02.539Z,0.60
2023-03-11T02:15:31.409Z,1.27
2023-03-11T02:18:05.426Z,0.97
2023-03-11T02:20:38.405Z,1.60
2023-03-11T02:23:10.867Z,2.20
2023-03-11T02:25:56.065Z,1.93
2023-03-11T02:28:27.214Z,1.97
2023-03-11T02:31:00.602Z,1.33
2023-03-11T02:33:39.259Z,0.83
2023-03-11T02:36:10.418Z,1.43
2023-03-11T02:38:39.521Z,1.60
2023-03-11T02:41:10.991Z,1.17
2023-03-11T02:43:47.175Z,1.60
2023-03-11T02:46:38.786Z,2.30
2023-03-11T02:49:07.423Z,0.57
2023-03-11T02:51:39.382Z,1.13
2023-03-11T02:54:16.375Z,2.40
2023-03-11T02:56:46.828Z,1.97
2023-03-11T02:59:18.388Z,0.90
2023-03-11T03:01:52.391Z,1.67
2023-03-11T03:04:22.241Z,1.37
2023-03-11T03:06:52.174Z,2.90
2023-03-11T03:09:21.504Z,1.37
2023-03-11T03:11:53.327Z,1.10
2023-03-11T03:14:27.296Z,0.77
2023-03-11T03:16:59.019Z,0.53
2023-03-11T03:19:27.827Z,1.30
2023-03-11T03:22:03.158Z,4.20
2023-03-11T03:24:33.908Z,1.27
2023-03-11T03:27:04.657Z,3.63
2023-03-11T03:29:34.426Z,2.10
2023-03-11T03:32:04.193Z,3.30
2023-03-11T03:34:34.630Z,1.67
2023-03-11T03:37:04.721Z,2.10
2023-03-11T03:39:38.113Z,1.60
2023-03-11T03:42:08.418Z,1.80
2023-03-11T03:44:41.331Z,1.47
2023-03-11T03:47:14.698Z,2.33
2023-03-11T03:49:44.723Z,1.43
2023-03-11T03:52:14.428Z,1.73
2023-03-11T03:54:47.975Z,1.40
2023-03-11T03:57:23.854Z,0.90
2023-03-11T03:59:55.343Z,1.93
2023-03-11T04:02:24.746Z,1.30
2023-03-11T04:04:55.115Z,2.50
2023-03-11T04:07:26.912Z,2.43
2023-03-11T04:09:57.270Z,2.43
2023-03-11T04:12:24.344Z,0.80
2023-03-11T04:14:54.806Z,1.27
2023-03-11T04:17:25.425Z,1.63
2023-03-11T04:19:53.928Z,1.30
2023-03-11T04:22:25.943Z,1.13
2023-03-11T04:24:54.953Z,1.30
2023-03-11T04:27:25.316Z,1.07
2023-03-11T04:29:57.090Z,2.10
2023-03-11T04:32:26.597Z,1.67
2023-03-11T04:34:54.851Z,2.87
2023-03-11T04:37:36.686Z,0.80
2023-03-11T04:40:09.221Z,4.00
2023-03-11T04:42:43.700Z,1.37
2023-03-11T04:45:12.796Z,1.70
2023-03-11T04:47:45.003Z,1.70
2023-03-11T04:50:16.634Z,1.80
2023-03-11T04:52:45.910Z,3.40
2023-03-11T04:55:16.321Z,1.60
2023-03-11T04:57:46.356Z,1.50
2023-03-11T05:00:18.595Z,1.00
2023-03-11T05:02:49.320Z,1.27
2023-03-11T05:05:22.325Z,1.30
2023-03-11T05:07:52.705Z,1.73
2023-03-11T05:10:25.487Z,1.20
2023-03-11T05:12:53.401Z,1.37
2023-03-11T05:15:24.772Z,1.37
2023-03-11T05:17:54.975Z,1.43
2023-03-11T05:20:23.238Z,2.10
2023-03-11T05:22:55.728Z,2.10
2023-03-11T05:25:28.335Z,1.63
2023-03-11T05:27:59.808Z,2.07
2023-03-11T05:30:29.823Z,1.47
2023-03-11T05:33:00.214Z,0.70
2023-03-11T05:35:29.474Z,1.90
2023-03-11T05:38:01.225Z,2.60
2023-03-11T05:40:31.250Z,1.40
2023-03-11T05:42:58.173Z,1.83
2023-03-11T05:45:27.884Z,1.43
2023-03-11T05:47:58.560Z,3.90
2023-03-11T05:50:28.105Z,2.03
2023-03-11T05:52:56.387Z,1.67
2023-03-11T05:55:29.775Z,1.20
2023-03-11T05:57:59.875Z,2.00
2023-03-11T06:00:30.483Z,1.53
2023-03-11T06:02:59.471Z,2.27
2023-03-11T06:05:30.879Z,2.03
2023-03-11T06:07:58.641Z,2.10
2023-03-11T06:10:30.340Z,1.30
2023-03-11T06:13:00.670Z,0.63
2023-03-11T06:15:30.815Z,2.43
2023-03-11T06:20:45.983Z,2.20
2023-03-11T06:23:19.930Z,1.47
2023-03-11T06:26:01.755Z,3.57
2023-03-11T06:31:31.117Z,2.60
2023-03-11T06:34:04.684Z,5.23
2023-03-11T06:36:32.956Z,4.50
2023-03-11T06:39:02.393Z,1.67
2023-03-11T06:41:37.074Z,1.73
2023-03-11T06:44:09.177Z,1.50
2023-03-11T06:46:45.283Z,3.37
2023-03-11T06:49:16.552Z,1.37
2023-03-11T06:51:47.164Z,1.83
2023-03-11T06:54:19.627Z,1.20
2023-03-11T06:56:57.118Z,1.63
2023-03-11T06:59:25.883Z,1.60
2023-03-11T07:01:54.818Z,1.43
2023-03-11T07:04:26.454Z,1.87
2023-03-11T07:06:54.844Z,2.17
2023-03-11T07:09:25.376Z,0.70
2023-03-11T07:11:53.505Z,2.40
2023-03-11T07:14:25.091Z,4.97
2023-03-11T07:16:53.558Z,0.80
2023-03-11T07:19:21.159Z,1.30
2023-03-11T07:21:53.381Z,0.73
2023-03-11T07:24:23.896Z,1.00
2023-03-11T07:26:53.899Z,1.10
2023-03-11T07:29:24.754Z,2.87
2023-03-11T07:31:56.027Z,1.30
2023-03-11T07:34:27.784Z,1.90
2023-03-11T07:36:55.404Z,49.00
2023-03-11T07:39:23.608Z,52.80
2023-03-11T07:41:52.533Z,59.00
2023-03-11T07:44:25.322Z,50.33
2023-03-11T07:46:55.975Z,47.90
2023-03-11T07:49:26.352Z,47.23
2023-03-11T07:51:58.627Z,38.27
2023-03-11T07:54:29.128Z,30.37
2023-03-11T07:56:56.806Z,30.33
2023-03-11T07:59:28.062Z,31.70
2023-03-11T08:01:59.731Z,37.03
2023-03-11T08:04:32.583Z,27.90
2023-03-11T08:07:03.226Z,25.73
2023-03-11T08:09:33.196Z,37.60
2023-03-11T08:12:02.146Z,23.03
2023-03-11T08:14:32.298Z,24.00
2023-03-11T08:17:00.239Z,23.40
2023-03-11T08:19:28.524Z,18.47
2023-03-11T08:22:01.836Z,18.87
2023-03-11T08:24:32.540Z,16.73
2023-03-11T08:26:59.338Z,16.93
2023-03-11T08:29:30.632Z,15.10
2023-03-11T08:32:02.170Z,18.43
2023-03-11T08:34:32.563Z,14.43
2023-03-11T08:37:03.447Z,13.70
2023-03-11T08:39:34.509Z,12.53
2023-03-11T08:42:06.153Z,14.83
2023-03-11T08:44:37.372Z,11.93
2023-03-11T08:47:07.538Z,10.23
2023-03-11T08:49:38.817Z,10.17
2023-03-11T08:52:09.241Z,8.67
2023-03-11T08:54:37.835Z,12.83
2023-03-11T08:57:07.550Z,8.67
2023-03-11T08:59:36.762Z,8.80
2023-03-11T09:02:06.433Z,7.63
2023-03-11T09:04:36.265Z,8.77
2023-03-11T09:07:07.628Z,9.90
2023-03-11T09:09:39.745Z,9.13
2023-03-11T09:12:08.369Z,5.80
2023-03-11T09:14:40.264Z,6.10
2023-03-11T09:17:12.167Z,7.50
2023-03-11T09:19:44.463Z,7.00
2023-03-11T09:22:12.833Z,4.97
2023-03-11T09:24:41.780Z,5.73
2023-03-11T09:27:10.989Z,4.80
2023-03-11T09:29:46.425Z,4.60
2023-03-11T09:32:15.494Z,5.10
2023-03-11T09:34:46.162Z,3.00
2023-03-11T09:37:15.626Z,4.10
2023-03-11T09:39:48.243Z,4.93
2023-03-11T09:42:46.738Z,4.77
2023-03-11T09:45:26.721Z,4.50
2023-03-11T09:48:23.534Z,3.83
2023-03-11T09:51:41.986Z,8.80
2023-03-11T09:54:17.472Z,4.63
2023-03-11T09:56:46.479Z,4.87
2023-03-11T09:59:29.778Z,4.73
2023-03-11T10:02:00.837Z,1.47
2023-03-11T10:05:08.319Z,3.67
2023-03-11T10:07:47.071Z,4.00
2023-03-11T10:10:17.902Z,1.53
2023-03-11T10:13:10.240Z,1.90
2023-03-11T10:16:04.894Z,2.00
2023-03-11T10:19:12.430Z,2.17
2023-03-11T10:22:21.411Z,2.63
2023-03-11T10:25:15.387Z,1.90
2023-03-11T10:28:18.382Z,3.70
2023-03-11T10:31:20.869Z,2.60
2023-03-11T10:34:13.011Z,4.10
2023-03-11T10:37:14.765Z,2.93
2023-03-11T10:39:45.580Z,3.33
2023-03-11T10:42:23.559Z,1.50
2023-03-11T10:44:54.138Z,1.20
2023-03-11T10:47:32.398Z,3.97
2023-03-11T10:50:03.303Z,3.07
2023-03-11T10:52:32.327Z,1.10
2023-03-11T10:55:11.652Z,2.53
2023-03-11T10:57:48.732Z,0.80
2023-03-11T11:00:37.403Z,3.23
2023-03-11T11:03:07.622Z,2.83
2023-03-11T11:05:49.288Z,4.83
2023-03-11T11:08:22.177Z,1.80
2023-03-11T11:11:09.714Z,1.20
2023-03-11T11:13:38.760Z,1.57
2023-03-11T11:16:22.733Z,1.80
2023-03-11T11:19:12.899Z,2.13
2023-03-11T11:21:54.987Z,1.63
2023-03-11T11:24:32.488Z,2.53
2023-03-11T11:27:28.410Z,2.23
2023-03-11T11:30:20.052Z,1.70
2023-03-11T11:32:57.142Z,2.00
2023-03-11T11:35:28.904Z,4.23
2023-03-11T11:38:10.304Z,4.23
2023-03-11T11:40:40.292Z,3.07
2023-03-11T11:43:26.946Z,5.43
2023-03-11T11:46:02.516Z,1.70
2023-03-11T11:48:52.814Z,3.20
2023-03-11T11:51:35.426Z,4.80
2023-03-11T11:54:42.843Z,1.47
2023-03-11T11:57:30.696Z,3.37
2023-03-11T12:00:06.478Z,1.90
2023-03-11T12:03:16.516Z,2.83
2023-03-11T12:05:58.109Z,2.67
2023-03-11T12:09:03.326Z,1.60
2023-03-11T12:11:49.884Z,2.80
2023-03-11T12:14:37.705Z,5.33
2023-03-11T12:17:13.705Z,2.30
2023-03-11T12:19:52.309Z,2.57
2023-03-11T12:22:54.962Z,3.70
2023-03-11T12:25:49.720Z,4.20
2023-03-11T12:28:52.529Z,2.07
2023-03-11T12:31:26.251Z,3.23
2023-03-11T12:34:07.735Z,3.20
2023-03-11T12:36:51.568Z,2.97
2023-03-11T12:39:36.212Z,2.23
2023-03-11T12:42:28.511Z,1.97
2023-03-11T12:45:39.819Z,1.70
2023-03-11T12:48:48.197Z,4.10
2023-03-11T12:51:42.892Z,1.73
2023-03-11T12:54:37.893Z,1.87
2023-03-11T12:57:23.724Z,3.30
2023-03-11T13:00:40.108Z,3.30
2023-03-11T13:03:31.887Z,2.90
2023-03-11T13:06:41.342Z,3.53
2023-03-11T13:09:21.353Z,1.70
2023-03-11T13:11:51.459Z,2.63
2023-03-11T13:14:40.398Z,3.03
2023-03-11T13:17:31.916Z,2.90
2023-03-11T13:20:01.960Z,2.47
2023-03-11T13:23:01.331Z,1.40
2023-03-11T13:25:41.361Z,2.20
2023-03-11T13:28:33.199Z,1.70
2023-03-11T13:34:46.145Z,2.37
2023-03-11T13:37:36.586Z,2.13
2023-03-11T13:40:38.969Z,2.80
2023-03-11T13:43:23.374Z,1.27
2023-03-11T13:46:13.942Z,2.70
2023-03-11T13:48:52.584Z,1.73
2023-03-11T13:51:45.229Z,1.63
2023-03-11T13:54:39.175Z,1.07
2023-03-11T13:57:25.459Z,1.17
2023-03-11T14:00:00.365Z,1.30
2023-03-11T14:02:31.016Z,1.00
2023-03-11T14:05:14.704Z,2.30
2023-03-11T14:07:44.522Z,1.70
2023-03-11T14:10:31.236Z,1.60
2023-03-11T14:13:20.621Z,2.43
2023-03-11T14:16:29.104Z,1.57
2023-03-11T14:19:18.784Z,1.03
2023-03-11T14:21:52.070Z,1.43
2023-03-11T14:24:31.584Z,1.50
2023-03-11T14:27:07.395Z,1.67
2023-03-11T14:29:40.383Z,1.67
2023-03-11T14:35:25.480Z,1.03
2023-03-11T14:37:54.858Z,1.53
2023-03-11T14:40:33.555Z,1.63
2023-03-11T14:43:08.551Z,2.30
2023-03-11T14:48:39.086Z,0.90
2023-03-11T14:51:18.943Z,0.80
2023-03-11T14:54:06.255Z,0.77
2023-03-11T14:56:47.914Z,0.90
2023-03-11T14:59:33.034Z,1.60
2023-03-11T15:02:45.876Z,0.97
2023-03-11T15:05:50.726Z,0.53
2023-03-11T15:08:20.055Z,0.63
2023-03-11T15:11:30.100Z,0.60
2023-03-11T15:14:17.681Z,0.90
2023-03-11T15:16:47.829Z,0.87
2023-03-11T15:19:31.920Z,1.60
2023-03-11T15:22:35.438Z,3.53
2023-03-11T15:25:17.080Z,1.10
2023-03-11T15:27:49.578Z,0.70
2023-03-11T15:30:36.771Z,1.50
2023-03-11T15:33:34.069Z,0.67
2023-03-11T15:36:02.186Z,0.70
2023-03-11T15:38:32.348Z,1.37
2023-03-11T15:41:08.325Z,5.47
2023-03-11T15:43:54.037Z,1.43
2023-03-11T15:46:24.075Z,3.97
2023-03-11T15:48:53.612Z,1.00
2023-03-11T15:51:23.883Z,4.10
2023-03-11T15:53:50.661Z,2.57
2023-03-11T15:56:27.639Z,5.83
2023-03-11T15:58:58.088Z,1.80
2023-03-11T16:01:28.740Z,3.67
2023-03-11T16:04:00.492Z,5.63
2023-03-11T16:06:32.073Z,3.47
2023-03-11T16:09:05.773Z,5.50
2023-03-11T16:11:37.399Z,4.03
2023-03-11T16:14:09.324Z,2.47
2023-03-11T16:16:41.802Z,1.90
2023-03-11T16:19:14.098Z,3.57
2023-03-11T16:21:52.658Z,2.73
2023-03-11T16:24:29.392Z,3.47
2023-03-11T16:26:57.650Z,3.80
2023-03-11T16:29:29.072Z,4.27
2023-03-11T16:32:01.790Z,2.63
2023-03-11T16:34:30.372Z,5.57
2023-03-11T16:37:01.621Z,5.17
2023-03-11T16:39:28.374Z,5.30
2023-03-11T16:41:58.785Z,4.03
2023-03-11T16:44:27.405Z,2.80
2023-03-11T16:46:55.388Z,7.07
2023-03-11T16:49:25.463Z,1.10
2023-03-11T16:51:56.594Z,6.57
2023-03-11T16:54:24.587Z,467.47
2023-03-11T16:56:54.882Z,216.63
2023-03-11T16:59:31.192Z,183.93
2023-03-11T17:02:02.348Z,163.23
2023-03-11T17:04:33.783Z,158.83
2023-03-11T17:07:03.158Z,148.93
2023-03-11T17:09:34.340Z,148.10
2023-03-11T17:12:09.963Z,115.83
2023-03-11T17:14:40.295Z,100.40
2023-03-11T17:17:10.506Z,87.07
2023-03-11T17:19:42.262Z,69.37
2023-03-11T17:22:13.559Z,83.90
2023-03-11T17:24:45.338Z,70.43
2023-03-11T17:27:15.993Z,69.57
2023-03-11T17:29:47.365Z,61.93
2023-03-11T17:32:21.978Z,55.13
2023-03-11T17:34:52.251Z,53.07
2023-03-11T17:37:23.046Z,46.27
2023-03-11T17:39:54.071Z,53.00
2023-03-11T17:42:22.914Z,45.13
2023-03-11T17:44:56.230Z,43.57
2023-03-11T17:47:29.432Z,37.47
2023-03-11T17:50:00.748Z,32.03
2023-03-11T17:52:28.915Z,29.97
2023-03-11T17:54:59.390Z,29.57
2023-03-11T17:57:33.561Z,29.00
2023-03-11T18:00:10.285Z,25.93
2023-03-11T18:02:42.612Z,24.40
2023-03-11T18:05:12.406Z,21.83
2023-03-11T18:07:46.683Z,22.03
2023-03-11T18:10:18.479Z,22.13
2023-03-11T18:12:50.914Z,18.67
2023-03-11T18:15:21.426Z,16.30
2023-03-11T18:17:50.818Z,20.93
2023-03-11T18:20:21.600Z,19.77
2023-03-11T18:22:53.134Z,16.50
2023-03-11T18:25:23.453Z,14.13
2023-03-11T18:27:51.921Z,13.17
2023-03-11T18:30:21.976Z,18.20
2023-03-11T18:32:54.142Z,11.07
2023-03-11T18:35:25.960Z,13.93
2023-03-11T18:37:57.597Z,11.70
2023-03-11T18:40:28.592Z,10.20
2023-03-11T18:43:02.100Z,10.23
2023-03-11T18:45:34.675Z,13.10
2023-03-11T18:48:06.183Z,11.23
2023-03-11T18:50:36.831Z,12.77
2023-03-11T18:53:07.922Z,11.13
2023-03-11T18:55:39.096Z,11.77
2023-03-11T18:58:12.625Z,10.83
2023-03-11T19:00:41.787Z,8.80
2023-03-11T19:03:16.621Z,7.53
2023-03-11T19:05:53.074Z,9.20
2023-03-11T19:08:23.594Z,7.07
2023-03-11T19:10:54.974Z,9.83
2023-03-11T19:13:31.821Z,8.33
2023-03-11T19:16:09.984Z,7.53
2023-03-11T19:18:38.868Z,9.17
2023-03-11T19:21:07.479Z,5.23
2023-03-11T19:23:36.765Z,9.97
2023-03-11T19:26:07.425Z,6.17
2023-03-11T19:28:38.977Z,7.33
2023-03-11T19:31:10.549Z,6.30
2023-03-11T19:33:41.852Z,5.03
2023-03-11T19:36:11.169Z,7.47
2023-03-11T19:38:41.866Z,8.67
2023-03-11T19:41:21.044Z,5.73
2023-03-11T19:43:52.800Z,5.37
2023-03-11T19:46:25.846Z,4.83
2023-03-11T19:48:58.678Z,6.73
2023-03-11T19:54:16.987Z,5.47
2023-03-11T19:56:51.185Z,6.10
2023-03-11T19:59:19.446Z,5.53
2023-03-11T20:01:49.967Z,5.23
2023-03-11T20:04:22.202Z,4.37
2023-03-11T20:06:52.917Z,4.40
2023-03-11T20:09:22.022Z,5.83
2023-03-11T20:11:56.901Z,6.53
2023-03-11T20:14:28.752Z,4.23
2023-03-11T20:16:58.920Z,4.87
2023-03-11T20:19:27.396Z,4.53
2023-03-11T20:21:57.287Z,5.83
2023-03-11T20:24:26.277Z,5.00
2023-03-11T20:26:57.743Z,8.27
2023-03-11T20:29:30.286Z,4.43
2023-03-11T20:31:58.260Z,5.73
2023-03-11T20:34:34.691Z,4.83
2023-03-11T20:37:03.581Z,3.27
2023-03-11T20:39:56.434Z,4.17
2023-03-11T20:42:26.788Z,6.60
2023-03-11T20:44:55.308Z,3.97
2023-03-11T20:47:23.706Z,5.13
2023-03-11T20:49:58.342Z,5.23
2023-03-11T20:52:45.245Z,5.00
2023-03-11T20:55:14.058Z,5.23
2023-03-11T20:57:42.211Z,5.07
2023-03-11T21:00:18.022Z,3.37
2023-03-11T21:02:46.722Z,4.13
2023-03-11T21:05:17.305Z,4.70
2023-03-11T21:07:52.658Z,4.33
2023-03-11T21:10:23.735Z,3.53
2023-03-11T21:12:53.815Z,3.80
2023-03-11T21:15:28.162Z,4.40
2023-03-11T21:18:00.245Z,4.03
2023-03-11T21:20:29.047Z,3.70
2023-03-11T21:22:58.887Z,3.50
2023-03-11T21:28:15.679Z,3.67
2023-03-11T21:30:48.536Z,4.07
2023-03-11T21:33:20.467Z,3.50
2023-03-11T21:35:59.491Z,3.30
2023-03-11T21:38:34.399Z,3.77
2023-03-11T21:41:14.443Z,4.60
2023-03-11T21:46:31.747Z,3.23
2023-03-11T21:49:03.789Z,3.73
2023-03-11T21:51:38.679Z,3.17
2023-03-11T21:54:10.294Z,3.00
2023-03-11T21:56:41.969Z,4.57
2023-03-11T21:59:14.753Z,3.77
2023-03-11T22:01:43.441Z,3.43
2023-03-11T22:04:15.312Z,3.60
2023-03-11T22:06:45.252Z,4.80
2023-03-11T22:09:15.334Z,4.17
2023-03-11T22:11:43.550Z,3.40
2023-03-11T22:14:14.096Z,2.70
2023-03-11T22:16:44.519Z,3.70
2023-03-11T22:19:15.331Z,4.40
2023-03-11T22:21:45.979Z,3.70
2023-03-11T22:24:16.552Z,3.97
2023-03-11T22:26:45.858Z,4.67
2023-03-11T22:29:16.774Z,3.10
2023-03-11T22:31:48.141Z,2.27
2023-03-11T22:34:20.884Z,2.93
2023-03-11T22:36:49.637Z,2.40
2023-03-11T22:39:20.313Z,3.37
2023-03-11T22:41:49.465Z,3.83
2023-03-11T22:44:18.627Z,2.80
2023-03-11T22:46:48.984Z,3.60
2023-03-11T22:49:17.094Z,5.77
2023-03-11T22:51:50.074Z,2.83
2023-03-11T22:54:23.148Z,2.70
2023-03-11T22:56:50.246Z,3.17
2023-03-11T22:59:18.770Z,7.63
2023-03-11T23:01:49.835Z,3.60
2023-03-11T23:04:19.890Z,3.37
2023-03-11T23:06:52.169Z,2.83
2023-03-11T23:09:24.772Z,3.10
2023-03-11T23:11:57.911Z,1.97
2023-03-11T23:14:43.682Z,3.00
2023-03-11T23:17:17.885Z,2.80
2023-03-11T23:19:49.668Z,1.77
2023-03-11T23:22:19.415Z,2.27
2023-03-11T23:24:49.871Z,4.73
2023-03-11T23:27:22.055Z,2.77
2023-03-11T23:29:50.897Z,2.73
2023-03-11T23:32:22.900Z,2.77
2023-03-11T23:34:54.575Z,2.50
2023-03-11T23:37:24.567Z,3.00
2023-03-11T23:39:55.038Z,2.23
2023-03-11T23:42:26.059Z,3.47
2023-03-11T23:44:56.799Z,4.33
2023-03-11T23:47:26.439Z,2.70
2023-03-11T23:49:57.847Z,2.43
2023-03-11T23:52:27.184Z,2.67
2023-03-11T23:55:00.029Z,2.00
